Current Conditions
Mostly Scattered
Clouds



Pressure
1026.92 (hPa) - 30.32 (inHG)
Visibility

0.0 (km) - 0.0 (miles)
   Temperature
0  °C
32°F
-3  °C
Dewpoint
80  %
 Humidity
   Wind Speed
14  km/h
8  kts
9  mph
4.0  m/s
   Wind Direction
 110°
East South
East
   Airport Data
LSMM
Location Meiringen 6 km (3.73 mi)
Metar :LSMM 182220Z AUTO 11008KT 9999NDV SCT033 BKN039 00/M03 Q1027 RMK
Sun 19th January 00:20 am
   Raw Metar Info
Raw METAR is the most common format in the world for the transmission of observational weather data. It is highly standardized through the International Civil Aviation Organization (ICAO), which allows it to be understood throughout most of the world.
   API Info
Data Provided by
https://www.checkwx.com/weather/LSMM
   © Info
CSS/SVG/PHP scripts were developed by weather34.com for use in the weather34 template © 2015-2020

Guide Info provided by Metar-Wikipedia